createdAt,value
2018-10-09T00:01:35.527Z,9.40
2018-10-09T00:06:39.077Z,9.60
2018-10-09T00:11:42.774Z,11.40
2018-10-09T00:16:46.384Z,10.57
2018-10-09T00:21:50.057Z,10.63
2018-10-09T00:26:53.671Z,12.03
2018-10-09T00:31:57.193Z,11.53
2018-10-09T00:37:00.708Z,10.97
2018-10-09T00:42:04.325Z,10.83
2018-10-09T00:47:07.929Z,10.20
2018-10-09T00:52:11.499Z,11.37
2018-10-09T00:57:15.121Z,11.17
2018-10-09T01:02:18.638Z,10.97
2018-10-09T01:07:28.720Z,10.37
2018-10-09T01:12:32.281Z,12.60
2018-10-09T01:17:35.841Z,14.07
2018-10-09T01:22:39.394Z,12.40
2018-10-09T01:27:43.003Z,12.07
2018-10-09T01:32:46.554Z,13.17
2018-10-09T01:37:50.094Z,13.93
2018-10-09T01:42:53.691Z,11.90
2018-10-09T01:47:57.383Z,11.97
2018-10-09T01:53:00.962Z,12.83
2018-10-09T01:58:04.527Z,13.50
2018-10-09T02:03:08.057Z,13.20
2018-10-09T02:08:11.700Z,11.60
2018-10-09T02:13:15.337Z,11.40
2018-10-09T02:18:18.861Z,11.93
2018-10-09T02:23:22.505Z,13.40
2018-10-09T02:28:26.335Z,13.97
2018-10-09T02:33:29.974Z,13.73
2018-10-09T02:38:33.551Z,12.37
2018-10-09T02:43:37.094Z,13.03
2018-10-09T02:48:40.693Z,13.77
2018-10-09T02:53:44.378Z,12.33
2018-10-09T02:58:47.964Z,12.37
2018-10-09T03:03:51.479Z,13.40
2018-10-09T03:08:55.021Z,13.97
2018-10-09T03:13:58.581Z,13.67
2018-10-09T03:19:02.350Z,16.17
2018-10-09T03:24:05.993Z,18.43
2018-10-09T03:29:09.926Z,16.70
2018-10-09T03:34:13.525Z,17.30
2018-10-09T03:39:17.122Z,14.87
2018-10-09T03:44:20.722Z,14.70
2018-10-09T03:49:24.336Z,16.83
2018-10-09T03:54:28.124Z,14.40
2018-10-09T03:59:31.933Z,13.40
2018-10-09T04:04:35.378Z,13.83
2018-10-09T04:09:39.003Z,12.90
2018-10-09T04:14:42.481Z,13.27
2018-10-09T04:19:46.196Z,13.93
2018-10-09T04:24:53.024Z,12.93
2018-10-09T04:29:56.706Z,11.47
2018-10-09T04:35:00.216Z,12.77
2018-10-09T04:40:03.810Z,11.57
2018-10-09T04:45:07.644Z,11.97
2018-10-09T04:50:11.214Z,14.83
2018-10-09T04:55:14.857Z,18.73
2018-10-09T05:00:29.001Z,15.30
2018-10-09T05:05:32.506Z,13.53
2018-10-09T05:10:36.175Z,11.80
2018-10-09T05:15:39.869Z,11.93
2018-10-09T05:20:43.453Z,13.27
2018-10-09T05:25:47.013Z,13.60
2018-10-09T05:30:50.560Z,15.40
2018-10-09T05:35:55.437Z,15.97
2018-10-09T05:40:59.103Z,12.57
2018-10-09T05:46:02.803Z,14.10
2018-10-09T05:51:06.809Z,12.53
2018-10-09T05:56:10.428Z,14.23
2018-10-09T06:01:14.131Z,14.73
2018-10-09T06:06:17.732Z,16.10
2018-10-09T06:11:21.276Z,15.70
2018-10-09T06:16:24.832Z,16.80
2018-10-09T06:21:28.358Z,16.70
2018-10-09T06:26:32.000Z,18.13
2018-10-09T06:31:35.591Z,15.43
2018-10-09T06:36:39.282Z,17.77
2018-10-09T06:41:43.113Z,21.27
2018-10-09T06:46:46.581Z,21.33
2018-10-09T06:51:53.918Z,20.73
2018-10-09T06:56:57.433Z,22.47
2018-10-09T07:02:01.098Z,21.93
2018-10-09T07:07:04.835Z,23.57
2018-10-09T07:12:08.405Z,26.27
2018-10-09T07:17:12.335Z,25.43
2018-10-09T07:22:15.964Z,24.50
2018-10-09T07:27:21.747Z,21.87
2018-10-09T07:32:25.323Z,20.67
2018-10-09T07:37:28.974Z,20.97
2018-10-09T07:42:32.860Z,21.67
2018-10-09T07:47:36.586Z,22.27
2018-10-09T07:52:40.249Z,23.17
2018-10-09T07:57:43.819Z,21.87
2018-10-09T08:02:47.484Z,21.77
2018-10-09T08:07:51.114Z,21.27
2018-10-09T08:12:54.799Z,20.43
2018-10-09T08:17:58.335Z,22.80
2018-10-09T08:23:02.648Z,20.30
2018-10-09T08:28:06.361Z,19.77
2018-10-09T08:33:09.882Z,17.97
2018-10-09T08:38:13.471Z,18.90
2018-10-09T08:43:17.003Z,18.83
2018-10-09T08:48:20.464Z,20.13
2018-10-09T08:53:24.414Z,18.90
2018-10-09T08:58:28.021Z,19.00
2018-10-09T09:03:31.582Z,17.73
2018-10-09T09:08:35.298Z,15.63
2018-10-09T09:13:38.840Z,18.80
2018-10-09T09:18:42.440Z,19.60
2018-10-09T09:23:45.957Z,18.20
2018-10-09T09:28:49.476Z,19.67
2018-10-09T09:33:53.227Z,20.37
2018-10-09T09:38:56.816Z,22.27
2018-10-09T09:44:00.342Z,19.57
2018-10-09T09:49:03.880Z,20.67
2018-10-09T09:54:07.458Z,20.63
2018-10-09T09:59:11.241Z,20.80
2018-10-09T10:04:15.167Z,20.23
2018-10-09T10:09:18.743Z,20.23
2018-10-09T10:14:22.430Z,18.40
2018-10-09T10:19:25.967Z,18.57
2018-10-09T10:24:29.746Z,21.50
2018-10-09T10:29:41.516Z,20.57
2018-10-09T10:34:45.300Z,20.53
2018-10-09T10:39:48.899Z,20.83
2018-10-09T10:44:52.484Z,19.27
2018-10-09T10:49:56.030Z,21.10
2018-10-09T10:54:59.649Z,21.53
2018-10-09T11:00:03.243Z,23.53
2018-10-09T11:05:06.810Z,21.10
2018-10-09T11:10:10.524Z,21.70
2018-10-09T11:15:14.070Z,22.47
2018-10-09T11:20:18.064Z,20.73
2018-10-09T11:25:21.583Z,19.80
2018-10-09T11:30:29.452Z,18.67
2018-10-09T11:35:32.998Z,19.37
2018-10-09T11:40:36.620Z,21.03
2018-10-09T11:45:40.627Z,19.17
2018-10-09T11:50:44.189Z,19.03
2018-10-09T11:55:47.771Z,19.27
2018-10-09T12:00:52.986Z,19.80
2018-10-09T12:05:56.566Z,21.03
2018-10-09T12:11:00.116Z,21.57
2018-10-09T12:16:03.893Z,19.47
2018-10-09T12:21:07.458Z,18.67
2018-10-09T12:26:10.978Z,16.97
2018-10-09T12:31:14.659Z,20.30
2018-10-09T12:36:18.568Z,17.70
2018-10-09T12:41:22.349Z,17.07
2018-10-09T12:46:25.895Z,20.80
2018-10-09T12:51:29.488Z,20.47
2018-10-09T12:56:33.009Z,17.77
2018-10-09T13:01:36.502Z,19.03
2018-10-09T13:06:40.176Z,18.73
2018-10-09T13:11:44.054Z,18.43
2018-10-09T13:16:47.590Z,20.13
2018-10-09T13:21:51.612Z,18.03
2018-10-09T13:26:55.005Z,15.90
2018-10-09T13:31:58.532Z,18.93
2018-10-09T13:37:02.923Z,18.37
2018-10-09T13:42:06.563Z,18.57
2018-10-09T13:47:10.383Z,19.60
2018-10-09T13:52:14.094Z,20.70
2018-10-09T13:57:17.758Z,18.17
2018-10-09T14:02:21.324Z,20.87
2018-10-09T14:07:24.999Z,21.50
2018-10-09T14:12:28.598Z,20.83
2018-10-09T14:17:32.145Z,21.90
2018-10-09T14:22:35.914Z,18.10
2018-10-09T14:27:39.595Z,20.37
2018-10-09T14:32:43.505Z,16.43
2018-10-09T14:37:47.078Z,20.47
2018-10-09T14:42:50.584Z,17.57
2018-10-09T14:47:54.273Z,19.70
2018-10-09T14:52:57.873Z,21.97
2018-10-09T14:58:01.386Z,18.83
2018-10-09T15:03:04.938Z,19.43
2018-10-09T15:08:08.619Z,17.60
2018-10-09T15:13:12.238Z,22.73
2018-10-09T15:18:15.810Z,20.83
2018-10-09T15:23:19.378Z,20.03
2018-10-09T15:28:23.429Z,19.70
2018-10-09T15:33:27.269Z,19.30
2018-10-09T15:38:30.808Z,17.70
2018-10-09T15:43:34.307Z,18.73
2018-10-09T15:48:37.923Z,16.03
2018-10-09T15:53:41.490Z,18.53
2018-10-09T15:58:45.030Z,19.20
2018-10-09T16:03:48.618Z,17.50
2018-10-09T16:08:52.184Z,14.63
2018-10-09T16:13:55.940Z,15.80
2018-10-09T16:18:59.547Z,15.97
2018-10-09T16:24:03.080Z,17.70
2018-10-09T16:29:06.715Z,17.33
2018-10-09T16:34:10.276Z,16.37
2018-10-09T16:39:14.519Z,15.00
2018-10-09T16:44:19.416Z,18.67
2018-10-09T16:49:22.962Z,17.50
2018-10-09T16:54:26.552Z,16.93
2018-10-09T16:59:30.093Z,18.97
2018-10-09T17:04:33.765Z,18.83
2018-10-09T17:09:37.351Z,21.87
2018-10-09T17:14:41.032Z,22.10
2018-10-09T17:19:44.621Z,19.73
2018-10-09T17:24:48.387Z,20.33
2018-10-09T17:29:52.014Z,24.00
2018-10-09T17:34:55.703Z,42.57
2018-10-09T17:39:59.212Z,74.17
2018-10-09T17:45:02.756Z,62.83
2018-10-09T17:50:06.564Z,75.47
2018-10-09T17:55:10.321Z,56.57
2018-10-09T18:00:16.748Z,56.63
2018-10-09T18:05:20.382Z,44.77
2018-10-09T18:10:24.002Z,37.13
2018-10-09T18:15:27.550Z,56.27
2018-10-09T18:20:31.020Z,56.27
2018-10-09T18:25:34.554Z,44.77
2018-10-09T18:30:38.246Z,40.33
2018-10-09T18:35:42.639Z,49.57
2018-10-09T18:40:46.233Z,51.60
2018-10-09T18:45:49.736Z,50.97
2018-10-09T18:50:53.286Z,48.07
2018-10-09T18:55:56.906Z,45.40
2018-10-09T19:01:00.481Z,46.43
2018-10-09T19:06:04.325Z,40.90
2018-10-09T19:11:07.962Z,42.20
2018-10-09T19:16:11.611Z,37.07
2018-10-09T19:21:15.191Z,40.83
2018-10-09T19:26:18.838Z,37.23
2018-10-09T19:31:22.454Z,40.67
2018-10-09T19:36:25.981Z,41.13
2018-10-09T19:41:29.519Z,45.73
2018-10-09T19:46:33.158Z,46.67
2018-10-09T19:51:39.348Z,51.33
2018-10-09T19:56:42.925Z,44.80
2018-10-09T20:01:46.427Z,41.73
2018-10-09T20:06:49.979Z,43.57
2018-10-09T20:11:53.474Z,45.43
2018-10-09T20:16:57.046Z,40.73
2018-10-09T20:22:00.684Z,40.70
2018-10-09T20:27:04.271Z,40.30
2018-10-09T20:32:07.863Z,38.97
2018-10-09T20:37:15.579Z,38.10
2018-10-09T20:42:20.548Z,39.13
2018-10-09T20:47:29.297Z,37.37
2018-10-09T20:52:32.858Z,35.53
2018-10-09T20:57:37.211Z,36.37
2018-10-09T21:02:40.798Z,38.97
2018-10-09T21:07:44.368Z,34.97
2018-10-09T21:12:48.045Z,35.47
2018-10-09T21:17:51.744Z,42.50
2018-10-09T21:22:55.221Z,39.60
2018-10-09T21:27:58.821Z,34.07
2018-10-09T21:33:03.775Z,32.17
2018-10-09T21:38:07.604Z,35.27
2018-10-09T21:43:12.720Z,37.87
2018-10-09T21:48:16.345Z,34.70
2018-10-09T21:53:19.984Z,33.97
2018-10-09T21:58:23.819Z,34.33
2018-10-09T22:03:27.382Z,34.33
2018-10-09T22:08:30.958Z,36.63
2018-10-09T22:13:34.605Z,39.17
2018-10-09T22:18:38.146Z,40.17
2018-10-09T22:23:41.694Z,37.30
2018-10-09T22:28:50.692Z,34.27
2018-10-09T22:33:54.434Z,38.40
2018-10-09T22:38:57.959Z,40.03
2018-10-09T22:44:01.449Z,41.10
2018-10-09T22:49:05.123Z,38.60
2018-10-09T22:54:08.651Z,41.20
2018-10-09T22:59:12.349Z,36.07
2018-10-09T23:04:15.950Z,37.57
2018-10-09T23:09:19.555Z,41.67
2018-10-09T23:14:23.057Z,40.13
2018-10-09T23:19:26.718Z,42.70
2018-10-09T23:24:30.266Z,37.30
2018-10-09T23:29:33.793Z,38.77
2018-10-09T23:34:37.429Z,37.77
2018-10-09T23:39:40.988Z,35.73
2018-10-09T23:44:44.572Z,33.43
2018-10-09T23:49:48.125Z,36.63
2018-10-09T23:54:51.669Z,37.77
2018-10-09T23:59:55.293Z,37.87
